createdAt,value
2019-02-18T00:01:27.419Z,94.20
2019-02-18T00:04:12.584Z,94.50
2019-02-18T00:06:57.523Z,94.20
2019-02-18T00:09:42.595Z,94.00
2019-02-18T00:12:27.061Z,94.30
2019-02-18T00:15:11.899Z,94.40
2019-02-18T00:17:56.602Z,94.50
2019-02-18T00:20:41.314Z,94.80
2019-02-18T00:23:26.419Z,94.80
2019-02-18T00:26:11.121Z,94.70
2019-02-18T00:28:56.218Z,94.70
2019-02-18T00:31:41.189Z,95.00
2019-02-18T00:34:25.762Z,94.80
2019-02-18T00:37:10.328Z,94.50
2019-02-18T00:39:54.681Z,94.80
2019-02-18T00:42:39.363Z,95.30
2019-02-18T00:45:23.809Z,95.30
2019-02-18T00:48:08.534Z,95.70
2019-02-18T00:50:53.408Z,95.70
2019-02-18T00:53:38.075Z,95.80
2019-02-18T00:56:23.088Z,95.70
2019-02-18T00:59:07.924Z,95.90
2019-02-18T01:01:52.454Z,96.00
2019-02-18T01:04:37.065Z,95.10
2019-02-18T01:07:21.650Z,95.90
2019-02-18T01:10:09.215Z,96.40
2019-02-18T01:12:53.785Z,96.70
2019-02-18T01:15:38.366Z,96.70
2019-02-18T01:18:22.960Z,96.80
2019-02-18T01:21:07.518Z,96.10
2019-02-18T01:23:52.244Z,96.30
2019-02-18T01:26:36.745Z,97.10
2019-02-18T01:29:21.224Z,96.90
2019-02-18T01:32:05.933Z,96.80
2019-02-18T01:34:50.358Z,97.50
2019-02-18T01:37:44.857Z,97.20
2019-02-18T01:40:21.708Z,97.30
2019-02-18T01:43:06.821Z,97.20
2019-02-18T01:45:55.280Z,97.50
2019-02-18T01:48:39.896Z,97.00
2019-02-18T01:51:24.270Z,97.10
2019-02-18T01:54:09.434Z,97.50
2019-02-18T01:56:53.950Z,97.40
2019-02-18T01:59:38.931Z,97.90
2019-02-18T02:02:25.836Z,97.70
2019-02-18T02:05:12.434Z,97.90
2019-02-18T02:07:57.306Z,97.90
2019-02-18T02:10:42.330Z,97.90
2019-02-18T02:13:28.663Z,98.00
2019-02-18T02:16:13.433Z,98.20
2019-02-18T02:18:58.154Z,98.00
2019-02-18T02:21:42.725Z,98.20
2019-02-18T02:24:27.556Z,98.20
2019-02-18T02:27:13.270Z,98.30
2019-02-18T02:29:57.933Z,98.00
2019-02-18T02:32:45.388Z,98.00
2019-02-18T02:35:32.317Z,98.30
2019-02-18T02:38:17.035Z,98.50
2019-02-18T02:41:02.203Z,98.90
2019-02-18T02:43:47.126Z,99.00
2019-02-18T02:46:31.538Z,98.80
2019-02-18T02:49:16.243Z,99.10
2019-02-18T02:52:01.400Z,99.10
2019-02-18T02:54:46.108Z,99.50
2019-02-18T02:57:30.778Z,99.90
2019-02-18T03:00:15.739Z,99.90
2019-02-18T03:03:02.294Z,99.90
2019-02-18T03:05:47.170Z,99.90
2019-02-18T03:08:31.685Z,99.90
2019-02-18T03:11:16.201Z,99.90
2019-02-18T03:14:00.691Z,99.90
2019-02-18T03:16:45.171Z,99.90
2019-02-18T03:19:33.768Z,99.90
2019-02-18T03:22:18.383Z,99.90
2019-02-18T03:25:25.593Z,99.90
2019-02-18T03:28:22.539Z,99.90
2019-02-18T03:31:11.091Z,99.90
2019-02-18T03:34:05.470Z,99.90
2019-02-18T03:36:50.299Z,99.90
2019-02-18T03:39:34.956Z,99.90
2019-02-18T03:42:19.418Z,99.90
2019-02-18T03:45:04.294Z,99.90
2019-02-18T03:47:48.994Z,99.90
2019-02-18T03:50:33.504Z,99.90
2019-02-18T03:53:18.245Z,99.90
2019-02-18T03:56:03.276Z,99.90
2019-02-18T03:58:48.246Z,99.90
2019-02-18T04:01:32.950Z,99.90
2019-02-18T04:04:17.944Z,99.90
2019-02-18T04:07:02.438Z,99.90
2019-02-18T04:09:47.325Z,99.90
2019-02-18T04:12:32.120Z,99.90
2019-02-18T04:15:17.350Z,99.90
2019-02-18T04:18:02.478Z,99.90
2019-02-18T04:20:47.080Z,99.90
2019-02-18T04:23:32.213Z,99.90
2019-02-18T04:26:16.774Z,99.90
2019-02-18T04:29:01.351Z,99.90
2019-02-18T04:31:45.930Z,99.90
2019-02-18T04:34:30.640Z,99.90
2019-02-18T04:37:15.417Z,99.90
2019-02-18T04:40:00.428Z,99.90
2019-02-18T04:42:45.137Z,99.90
2019-02-18T04:45:29.758Z,99.90
2019-02-18T04:48:14.369Z,99.90
2019-02-18T04:50:58.819Z,99.90
2019-02-18T04:53:43.529Z,99.90
2019-02-18T04:56:27.906Z,99.90
2019-02-18T04:59:14.311Z,99.90
2019-02-18T05:01:59.230Z,99.90
2019-02-18T05:04:43.793Z,99.90
2019-02-18T05:07:28.807Z,99.90
2019-02-18T05:10:13.794Z,99.90
2019-02-18T05:12:58.283Z,99.90
2019-02-18T05:15:42.830Z,99.90
2019-02-18T05:18:27.499Z,99.90
2019-02-18T05:21:12.403Z,99.90
2019-02-18T05:23:57.084Z,99.90
2019-02-18T05:26:41.838Z,99.90
2019-02-18T05:29:26.702Z,99.90
2019-02-18T05:32:11.563Z,99.90
2019-02-18T05:34:56.429Z,99.90
2019-02-18T05:37:41.017Z,99.90
2019-02-18T05:40:25.744Z,99.90
2019-02-18T05:43:10.133Z,99.90
2019-02-18T05:45:54.649Z,99.90
2019-02-18T05:48:39.214Z,99.90
2019-02-18T05:51:23.669Z,99.90
2019-02-18T05:54:08.436Z,99.90
2019-02-18T05:56:53.509Z,99.90
2019-02-18T05:59:40.764Z,99.90
2019-02-18T06:02:25.525Z,99.90
2019-02-18T06:05:10.148Z,99.90
2019-02-18T06:07:54.558Z,99.90
2019-02-18T06:10:39.164Z,99.90
2019-02-18T06:13:24.412Z,99.90
2019-02-18T06:16:09.353Z,99.90
2019-02-18T06:18:57.222Z,99.90
2019-02-18T06:21:42.700Z,99.90
2019-02-18T06:24:27.717Z,99.90
2019-02-18T06:27:12.873Z,99.90
2019-02-18T06:29:57.771Z,99.90
2019-02-18T06:32:43.136Z,99.90
2019-02-18T06:35:27.905Z,99.90
2019-02-18T06:38:12.478Z,99.90
2019-02-18T06:40:57.034Z,99.90
2019-02-18T06:43:41.537Z,99.90
2019-02-18T06:46:30.705Z,99.90
2019-02-18T06:49:15.766Z,99.90
2019-02-18T06:52:19.969Z,99.90
2019-02-18T06:55:19.044Z,99.90
2019-02-18T06:58:38.195Z,99.90
2019-02-18T07:01:45.165Z,99.90
2019-02-18T07:04:49.625Z,99.90
2019-02-18T07:07:54.328Z,99.90
2019-02-18T07:10:57.118Z,99.90
2019-02-18T07:13:56.909Z,99.90
2019-02-18T07:16:56.191Z,99.90
2019-02-18T07:19:55.686Z,99.90
2019-02-18T07:22:54.901Z,99.90
2019-02-18T07:25:56.554Z,99.90
2019-02-18T07:28:56.289Z,99.90
2019-02-18T07:31:55.305Z,99.90
2019-02-18T07:34:54.779Z,99.90
2019-02-18T07:37:57.724Z,99.90
2019-02-18T07:40:57.127Z,99.90
2019-02-18T07:43:57.209Z,99.90
2019-02-18T07:46:56.513Z,99.90
2019-02-18T07:49:56.455Z,99.90
2019-02-18T07:52:55.667Z,99.90
2019-02-18T07:55:55.000Z,99.90
2019-02-18T07:58:54.213Z,99.50
2019-02-18T08:01:53.350Z,99.00
2019-02-18T08:04:52.533Z,98.30
2019-02-18T08:07:51.838Z,98.00
2019-02-18T08:10:51.230Z,96.60
2019-02-18T08:13:50.918Z,95.10
2019-02-18T08:16:53.877Z,93.70
2019-02-18T08:19:55.471Z,93.30
2019-02-18T08:22:55.490Z,92.70
2019-02-18T08:25:58.681Z,92.50
2019-02-18T08:28:57.957Z,91.90
2019-02-18T08:31:57.223Z,90.90
2019-02-18T08:34:56.578Z,90.60
2019-02-18T08:37:55.650Z,89.10
2019-02-18T08:40:54.952Z,86.30
2019-02-18T08:43:54.147Z,85.80
2019-02-18T08:46:53.712Z,84.40
2019-02-18T08:49:53.765Z,81.40
2019-02-18T08:52:54.213Z,78.90
2019-02-18T08:55:54.119Z,78.10
2019-02-18T08:58:54.472Z,77.00
2019-02-18T09:01:54.827Z,76.00
2019-02-18T09:04:56.702Z,73.90
2019-02-18T09:07:55.731Z,73.40
2019-02-18T09:10:55.393Z,72.80
2019-02-18T09:13:55.267Z,71.10
2019-02-18T09:16:55.339Z,69.60
2019-02-18T09:19:56.363Z,68.60
2019-02-18T09:26:22.809Z,66.30
2019-02-18T09:29:22.463Z,66.00
2019-02-18T09:32:22.038Z,64.80
2019-02-18T09:35:21.227Z,63.30
2019-02-18T09:38:24.780Z,62.80
2019-02-18T09:41:25.215Z,62.70
2019-02-18T09:44:24.545Z,61.50
2019-02-18T09:47:25.133Z,60.30
2019-02-18T09:50:24.842Z,60.10
2019-02-18T09:53:23.999Z,59.70
2019-02-18T09:56:23.533Z,59.00
2019-02-18T09:59:22.698Z,57.40
2019-02-18T10:02:22.682Z,58.20
2019-02-18T10:05:22.489Z,57.90
2019-02-18T10:08:21.642Z,57.70
2019-02-18T10:11:21.479Z,57.70
2019-02-18T10:14:21.072Z,57.30
2019-02-18T10:17:21.055Z,55.80
2019-02-18T10:20:20.415Z,55.80
2019-02-18T10:23:19.727Z,55.20
2019-02-18T10:26:19.638Z,55.20
2019-02-18T10:29:18.772Z,55.60
2019-02-18T10:32:17.815Z,55.50
2019-02-18T10:35:16.921Z,55.50
2019-02-18T10:38:16.003Z,55.10
2019-02-18T10:41:19.328Z,53.50
2019-02-18T10:44:19.634Z,53.40
2019-02-18T10:47:19.463Z,53.50
2019-02-18T10:50:18.821Z,53.10
2019-02-18T10:53:18.775Z,52.40
2019-02-18T10:56:18.177Z,52.20
2019-02-18T10:59:18.237Z,52.30
2019-02-18T11:02:17.352Z,52.60
2019-02-18T11:05:17.257Z,53.50
2019-02-18T11:08:16.854Z,53.00
2019-02-18T11:11:17.370Z,52.10
2019-02-18T11:14:18.820Z,52.40
2019-02-18T11:17:18.315Z,52.50
2019-02-18T11:20:17.533Z,52.90
2019-02-18T11:23:16.699Z,52.40
2019-02-18T11:26:16.789Z,51.20
2019-02-18T11:29:15.997Z,50.30
2019-02-18T11:32:15.299Z,49.10
2019-02-18T11:35:14.758Z,49.60
2019-02-18T11:38:14.104Z,49.50
2019-02-18T11:41:14.237Z,49.20
2019-02-18T11:44:13.427Z,49.90
2019-02-18T11:47:12.840Z,49.10
2019-02-18T11:50:12.961Z,48.70
2019-02-18T11:53:12.974Z,48.90
2019-02-18T11:56:12.208Z,49.90
2019-02-18T11:59:11.457Z,48.60
2019-02-18T12:02:10.744Z,48.30
2019-02-18T12:05:10.979Z,48.50
2019-02-18T12:08:10.112Z,48.90
2019-02-18T12:11:09.797Z,47.70
2019-02-18T12:14:09.068Z,45.60
2019-02-18T12:17:19.979Z,45.60
2019-02-18T12:20:10.563Z,44.70
2019-02-18T12:23:10.132Z,44.70
2019-02-18T12:26:10.546Z,42.70
2019-02-18T12:29:15.157Z,41.00
2019-02-18T12:32:14.737Z,40.50
2019-02-18T12:35:14.022Z,39.70
2019-02-18T12:38:13.283Z,39.40
2019-02-18T12:41:13.402Z,37.10
2019-02-18T12:44:13.478Z,36.60
2019-02-18T12:47:12.718Z,36.70
2019-02-18T12:50:12.413Z,36.60
2019-02-18T12:53:12.587Z,38.90
2019-02-18T12:56:13.001Z,38.40
2019-02-18T12:59:13.248Z,39.50
2019-02-18T13:02:13.519Z,39.50
2019-02-18T13:05:14.105Z,39.90
2019-02-18T13:08:13.889Z,41.00
2019-02-18T13:11:13.889Z,40.70
2019-02-18T13:14:14.319Z,40.60
2019-02-18T13:17:14.470Z,40.20
2019-02-18T13:20:14.814Z,39.40
2019-02-18T13:23:15.098Z,39.60
2019-02-18T13:26:15.304Z,40.40
2019-02-18T13:29:15.358Z,40.00
2019-02-18T13:32:15.627Z,39.50
2019-02-18T13:35:15.741Z,37.40
2019-02-18T13:38:14.987Z,37.90
2019-02-18T13:41:14.305Z,37.50
2019-02-18T13:44:13.739Z,36.00
2019-02-18T13:47:13.649Z,36.40
2019-02-18T13:50:13.122Z,37.20
2019-02-18T13:53:12.262Z,37.20
2019-02-18T13:56:11.527Z,35.90
2019-02-18T13:59:11.024Z,36.00
2019-02-18T14:02:11.025Z,36.30
2019-02-18T14:05:10.242Z,36.40
2019-02-18T14:08:09.306Z,36.00
2019-02-18T14:11:08.817Z,35.50
2019-02-18T14:14:08.017Z,35.50
2019-02-18T14:17:07.512Z,35.20
2019-02-18T14:20:07.218Z,35.30
2019-02-18T14:23:06.602Z,35.60
2019-02-18T14:26:06.111Z,36.10
2019-02-18T14:29:08.511Z,36.00
2019-02-18T14:32:08.387Z,35.50
2019-02-18T14:35:07.603Z,36.00
2019-02-18T14:38:06.811Z,36.10
2019-02-18T14:41:06.247Z,35.40
2019-02-18T14:44:06.633Z,36.40
2019-02-18T14:47:06.709Z,35.90
2019-02-18T14:50:06.268Z,36.10
2019-02-18T14:53:06.015Z,36.50
2019-02-18T14:56:06.744Z,36.10
2019-02-18T14:59:06.218Z,37.00
2019-02-18T15:02:06.301Z,36.20
2019-02-18T15:05:08.317Z,37.30
2019-02-18T15:08:08.651Z,37.60
2019-02-18T15:11:07.909Z,38.40
2019-02-18T15:14:07.764Z,39.10
2019-02-18T15:17:10.421Z,38.70
2019-02-18T15:20:11.619Z,39.40
2019-02-18T15:23:11.720Z,40.10
2019-02-18T15:26:11.567Z,40.00
2019-02-18T15:29:10.902Z,40.10
2019-02-18T15:32:10.959Z,38.40
2019-02-18T15:35:10.261Z,39.60
2019-02-18T15:38:10.242Z,40.50
2019-02-18T15:41:09.394Z,40.80
2019-02-18T15:44:08.843Z,41.70
2019-02-18T15:47:07.996Z,42.70
2019-02-18T15:50:07.429Z,43.40
2019-02-18T15:53:09.089Z,44.70
2019-02-18T15:56:08.779Z,44.00
2019-02-18T15:59:08.105Z,45.80
2019-02-18T16:02:08.269Z,47.40
2019-02-18T16:05:07.512Z,48.70
2019-02-18T16:08:07.691Z,48.00
2019-02-18T16:11:07.796Z,48.50
2019-02-18T16:14:06.947Z,48.40
2019-02-18T16:17:06.463Z,48.90
2019-02-18T16:20:05.733Z,48.90
2019-02-18T16:23:05.814Z,49.80
2019-02-18T16:26:05.018Z,49.70
2019-02-18T16:29:04.400Z,51.90
2019-02-18T16:32:04.417Z,51.90
2019-02-18T16:35:03.618Z,51.10
2019-02-18T16:38:03.968Z,51.20
2019-02-18T16:41:04.269Z,52.50
2019-02-18T16:44:04.620Z,52.30
2019-02-18T16:47:05.935Z,52.90
2019-02-18T16:50:06.011Z,53.50
2019-02-18T16:53:07.032Z,53.20
2019-02-18T16:56:08.793Z,54.00
2019-02-18T16:59:08.523Z,54.10
2019-02-18T17:02:08.618Z,55.10
2019-02-18T17:05:10.786Z,56.10
2019-02-18T17:08:10.729Z,56.50
2019-02-18T17:11:10.002Z,57.70
2019-02-18T17:14:09.942Z,57.10
2019-02-18T17:17:09.213Z,57.80
2019-02-18T17:20:08.391Z,58.70
2019-02-18T17:23:07.517Z,59.60
2019-02-18T17:26:06.847Z,59.50
2019-02-18T17:29:06.811Z,60.60
2019-02-18T17:32:06.226Z,60.40
2019-02-18T17:35:05.652Z,59.10
2019-02-18T17:38:04.954Z,58.20
2019-02-18T17:41:04.108Z,58.00
2019-02-18T17:44:03.377Z,57.00
2019-02-18T17:47:02.892Z,57.00
2019-02-18T17:50:02.863Z,56.70
2019-02-18T17:53:02.737Z,56.60
2019-02-18T17:56:01.929Z,56.40
2019-02-18T17:59:01.648Z,56.40
2019-02-18T18:02:01.676Z,56.20
2019-02-18T18:05:01.910Z,55.90
2019-02-18T18:08:04.741Z,56.70
2019-02-18T18:11:04.208Z,56.70
2019-02-18T18:14:03.356Z,56.20
2019-02-18T18:17:03.723Z,56.70
2019-02-18T18:20:03.632Z,56.30
2019-02-18T18:23:02.963Z,56.50
2019-02-18T18:26:02.226Z,56.70
2019-02-18T18:29:02.271Z,57.30
2019-02-18T18:32:01.601Z,57.40
2019-02-18T18:35:00.876Z,57.60
2019-02-18T18:37:59.962Z,57.90
2019-02-18T18:40:59.131Z,58.10
2019-02-18T18:43:58.660Z,58.50
2019-02-18T18:46:58.653Z,59.00
2019-02-18T18:49:58.193Z,58.30
2019-02-18T18:52:58.323Z,58.40
2019-02-18T18:55:57.636Z,59.00
2019-02-18T18:58:57.829Z,58.70
2019-02-18T19:01:57.078Z,59.40
2019-02-18T19:04:57.229Z,60.30
2019-02-18T19:07:57.019Z,59.60
2019-02-18T19:10:56.907Z,60.00
2019-02-18T19:13:56.106Z,61.30
2019-02-18T19:16:56.396Z,61.40
2019-02-18T19:19:43.498Z,61.60
2019-02-18T19:22:49.842Z,62.00
2019-02-18T19:25:49.280Z,62.10
2019-02-18T19:28:48.647Z,62.40
2019-02-18T19:31:48.255Z,62.80
2019-02-18T19:34:47.312Z,62.70
2019-02-18T19:37:46.752Z,62.70
2019-02-18T19:40:45.864Z,63.20
2019-02-18T19:43:50.182Z,62.70
2019-02-18T19:46:46.327Z,63.60
2019-02-18T19:49:46.455Z,63.20
2019-02-18T19:52:46.513Z,63.40
2019-02-18T19:55:46.009Z,63.30
2019-02-18T19:58:46.011Z,63.50
2019-02-18T20:01:46.137Z,63.90
2019-02-18T20:04:46.385Z,65.40
2019-02-18T20:07:46.497Z,65.80
2019-02-18T20:10:46.591Z,66.40
2019-02-18T20:13:46.115Z,66.90
2019-02-18T20:16:46.425Z,66.80
2019-02-18T20:19:46.436Z,67.10
2019-02-18T20:22:46.907Z,67.50
2019-02-18T20:25:47.104Z,68.40
2019-02-18T20:28:47.106Z,67.70
2019-02-18T20:31:47.925Z,68.90
2019-02-18T20:34:47.967Z,69.20
2019-02-18T20:37:48.344Z,70.00
2019-02-18T20:40:48.600Z,69.90
2019-02-18T20:43:48.932Z,70.60
2019-02-18T20:46:49.365Z,70.90
2019-02-18T20:49:49.457Z,71.50
2019-02-18T20:52:49.622Z,71.30
2019-02-18T20:55:49.809Z,72.00
2019-02-18T20:58:50.168Z,73.30
2019-02-18T21:01:50.293Z,73.40
2019-02-18T21:04:50.563Z,73.60
2019-02-18T21:07:50.443Z,74.00
2019-02-18T21:10:50.281Z,74.00
2019-02-18T21:13:49.649Z,75.30
2019-02-18T21:16:48.988Z,75.50
2019-02-18T21:19:49.199Z,75.90
2019-02-18T21:22:48.540Z,76.50
2019-02-18T21:25:47.871Z,77.20
2019-02-18T21:28:47.226Z,78.00
2019-02-18T21:31:46.660Z,78.80
2019-02-18T21:34:46.799Z,78.90
2019-02-18T21:37:46.079Z,80.10
2019-02-18T21:40:45.604Z,81.00
2019-02-18T21:43:45.818Z,81.60
2019-02-18T21:46:45.803Z,81.80
2019-02-18T21:49:46.106Z,82.50
2019-02-18T21:52:46.244Z,83.00
2019-02-18T21:55:45.499Z,83.70
2019-02-18T21:58:44.856Z,84.40
2019-02-18T22:01:44.437Z,85.00
2019-02-18T22:04:43.807Z,85.60
2019-02-18T22:07:43.105Z,85.90
2019-02-18T22:10:43.176Z,86.40
2019-02-18T22:13:42.361Z,86.40
2019-02-18T22:16:42.484Z,86.60
2019-02-18T22:19:41.588Z,87.00
2019-02-18T22:22:40.950Z,87.60
2019-02-18T22:25:40.130Z,88.20
2019-02-18T22:28:39.652Z,88.60
2019-02-18T22:31:38.953Z,88.70
2019-02-18T22:34:39.246Z,88.60
2019-02-18T22:37:38.632Z,90.10
2019-02-18T22:40:41.593Z,90.20
2019-02-18T22:43:41.010Z,90.40
2019-02-18T22:46:40.178Z,90.50
2019-02-18T22:49:40.501Z,90.50
2019-02-18T22:52:40.604Z,90.60
2019-02-18T22:55:40.492Z,90.70
2019-02-18T22:58:39.681Z,91.10
2019-02-18T23:01:39.172Z,91.40
2019-02-18T23:04:39.287Z,91.60
2019-02-18T23:07:38.485Z,91.70
2019-02-18T23:10:38.034Z,92.00
2019-02-18T23:13:37.165Z,92.00
2019-02-18T23:16:36.728Z,92.20
2019-02-18T23:19:36.745Z,92.40
2019-02-18T23:22:35.930Z,92.30
2019-02-18T23:25:35.139Z,92.50
2019-02-18T23:28:34.110Z,92.70
2019-02-18T23:31:33.557Z,92.90
2019-02-18T23:34:33.762Z,93.20
2019-02-18T23:37:33.900Z,93.40
2019-02-18T23:40:33.054Z,93.90
2019-02-18T23:43:32.151Z,93.80
2019-02-18T23:46:31.462Z,94.00
2019-02-18T23:49:30.664Z,94.20
2019-02-18T23:52:29.943Z,94.30
2019-02-18T23:55:29.851Z,94.50
2019-02-18T23:58:28.967Z,94.50
